Time;durP1;ratioP1;P1;durP2;ratioP2;P2;SDS_P1;SDS_P2;PMS_P1;PMS_P2;Temp;Humidity;BMP_temperature;BMP_pressure;BME280_temperature;BME280_humidity;BME280_pressure;Samples;Min_cycle;Max_cycle;Signal;HPM_P1;HPM_P2
2023/12/07 00:01:24;;;;;;;51.30;29.40;;;;;;;-5.80;73.35;100244.54;106820;1260;61254;-39
2023/12/07 00:03:52;;;;;;;54.40;30.90;;;;;;;-5.83;73.74;100244.97;106844;1260;59503;-39
2023/12/07 00:06:19;;;;;;;54.80;31.80;;;;;;;-5.88;73.73;100248.05;106837;1260;71799;-39
2023/12/07 00:08:47;;;;;;;57.50;32.40;;;;;;;-5.95;73.69;100238.44;106903;1260;67568;-39
2023/12/07 00:11:15;;;;;;;54.00;31.40;;;;;;;-5.97;73.79;100247.81;106789;1262;72823;-39
2023/12/07 00:13:42;;;;;;;53.40;30.10;;;;;;;-5.99;74.11;100246.09;106833;1260;60062;-39
2023/12/07 00:16:10;;;;;;;57.50;31.10;;;;;;;-5.98;74.01;100249.77;106862;1260;60674;-39
2023/12/07 00:34:27;;;;;;;56.70;31.10;;;;;;;-6.11;73.76;100248.02;106779;1260;60103;-39
2023/12/07 00:36:55;;;;;;;57.20;30.80;;;;;;;-6.18;73.81;100251.33;106823;1260;73497;-39
2023/12/07 00:39:22;;;;;;;52.70;29.60;;;;;;;-6.24;73.64;100250.64;106824;1260;67065;-39
2023/12/07 00:41:50;;;;;;;53.10;28.50;;;;;;;-6.20;73.65;100250.91;106758;1262;71178;-39
2023/12/07 00:44:17;;;;;;;54.30;29.50;;;;;;;-6.17;73.65;100249.36;106789;1264;59786;-39
2023/12/07 00:46:45;;;;;;;54.30;29.80;;;;;;;-6.23;73.84;100237.70;106805;1263;59519;-39
2023/12/07 00:49:12;;;;;;;54.20;30.90;;;;;;;-6.15;73.88;100246.74;106813;1263;72968;-39
2023/12/07 00:51:40;;;;;;;63.40;31.30;;;;;;;-6.16;73.76;100244.24;106838;1261;66315;-39
2023/12/07 00:54:08;;;;;;;55.20;31.00;;;;;;;-6.22;73.63;100247.86;106796;1263;71411;-39
2023/12/07 00:56:37;;;;;;;51.10;29.40;;;;;;;-6.25;73.71;100250.43;105987;1263;1003036;-39
2023/12/07 00:59:05;;;;;;;53.70;29.80;;;;;;;-6.27;73.61;100250.42;106743;1262;59263;-39
2023/12/07 01:01:32;;;;;;;49.10;28.00;;;;;;;-6.26;73.57;100250.19;106684;1262;71807;-39
2023/12/07 01:04:00;;;;;;;52.90;28.50;;;;;;;-6.16;73.33;100246.83;106712;1263;66272;-39
2023/12/07 01:06:28;;;;;;;54.80;28.90;;;;;;;-6.14;73.29;100246.40;106737;1263;72517;-39
2023/12/07 01:08:56;;;;;;;52.40;30.40;;;;;;;-6.14;73.09;100241.59;106807;1263;59498;-39
2023/12/07 01:11:23;;;;;;;56.90;30.50;;;;;;;-6.16;73.37;100241.60;106808;1263;60061;-39
2023/12/07 01:13:51;;;;;;;52.50;29.60;;;;;;;-6.20;73.15;100247.05;106750;1261;71809;-39
2023/12/07 01:16:18;;;;;;;52.10;29.10;;;;;;;-6.26;73.15;100238.63;106062;1263;1003670;-39
2023/12/07 01:18:46;;;;;;;51.50;30.10;;;;;;;-6.31;73.05;100236.93;106732;1264;72662;-39
2023/12/07 01:21:13;;;;;;;54.00;29.90;;;;;;;-6.40;73.26;100225.66;106694;1264;59737;-39
2023/12/07 01:23:42;;;;;;;51.40;28.70;;;;;;;-6.37;72.81;100236.95;106680;1261;59592;-39
2023/12/07 01:26:10;;;;;;;52.70;29.10;;;;;;;-6.29;72.62;100238.80;106698;1264;72065;-39
2023/12/07 01:28:38;;;;;;;51.70;28.20;;;;;;;-6.22;72.53;100240.52;105974;1261;1003426;-39
2023/12/07 01:31:06;;;;;;;51.30;29.40;;;;;;;-6.22;72.46;100235.45;106715;1264;71426;-39
2023/12/07 01:33:33;;;;;;;50.20;27.70;;;;;;;-6.26;72.48;100240.37;106786;1267;59640;-38
2023/12/07 01:36:01;;;;;;;51.90;28.70;;;;;;;-6.29;72.55;100243.30;106748;1263;59507;-39
2023/12/07 01:38:29;;;;;;;52.90;29.30;;;;;;;-6.28;72.89;100242.43;106762;1263;73193;-39
2023/12/07 01:40:56;;;;;;;48.80;27.70;;;;;;;-6.29;72.67;100248.38;106791;1262;66669;-39
2023/12/07 01:43:24;;;;;;;56.20;28.40;;;;;;;-6.34;72.74;100250.66;106054;1263;1003351;-39
2023/12/07 01:45:55;;;;;;;53.80;29.70;;;;;;;-6.40;72.77;100253.84;106793;1263;60106;-39
2023/12/07 01:48:24;;;;;;;51.10;29.50;;;;;;;-6.42;72.81;100251.19;105993;1263;1003041;-39
2023/12/07 01:50:54;;;;;;;53.60;28.30;;;;;;;-6.41;72.88;100252.43;106826;1263;73116;-39
2023/12/07 01:53:21;;;;;;;49.20;28.30;;;;;;;-6.34;72.45;100248.55;106828;1263;67915;-39
2023/12/07 01:55:50;;;;;;;48.40;27.20;;;;;;;-6.25;72.39;100248.52;106042;1264;1003654;-39
2023/12/07 01:58:18;;;;;;;50.60;28.70;;;;;;;-6.22;72.50;100246.89;106079;1262;1002314;-39
2023/12/07 02:00:46;;;;;;;49.90;28.50;;;;;;;-6.21;72.32;100241.48;106033;1268;1003118;-39
2023/12/07 02:03:14;;;;;;;51.20;29.20;;;;;;;-6.21;72.30;100236.64;106733;1263;73852;-39
2023/12/07 02:05:43;;;;;;;57.10;30.30;;;;;;;-6.22;72.26;100238.77;106780;1267;67912;-39
2023/12/07 02:08:11;;;;;;;46.60;27.60;;;;;;;-6.23;72.14;100233.87;106714;1264;71372;-39
2023/12/07 02:10:38;;;;;;;52.30;29.70;;;;;;;-6.27;71.98;100234.34;106702;1263;59612;-39
2023/12/07 02:13:06;;;;;;;52.20;29.00;;;;;;;-6.33;72.00;100231.39;106705;1263;60242;-39
2023/12/07 02:15:33;;;;;;;51.40;28.40;;;;;;;-6.38;71.80;100228.77;105944;1263;1003079;-39
2023/12/07 02:18:10;;;;;;;53.50;29.40;;;;;;;-6.46;71.67;100225.73;106728;1262;67948;-39
2023/12/07 02:20:43;;;;;;;53.10;27.30;;;;;;;-6.46;71.70;100220.77;106749;1263;72642;-39
2023/12/07 02:23:11;;;;;;;51.90;28.70;;;;;;;-6.42;71.72;100221.98;106768;1268;59666;-39
2023/12/07 02:26:20;;;;;;;49.40;27.40;;;;;;;-6.46;72.30;100224.79;106734;1262;59552;-39
2023/12/07 02:28:54;;;;;;;47.70;26.40;;;;;;;-6.50;72.24;100221.20;106815;1263;73094;-39
2023/12/07 02:31:21;;;;;;;49.00;27.70;;;;;;;-6.51;72.59;100217.65;106757;1263;66780;-40
2023/12/07 02:33:50;;;;;;;46.00;26.70;;;;;;;-6.52;72.82;100217.20;106815;1264;72690;-39
2023/12/07 02:36:19;;;;;;;36.70;21.30;;;;;;;-6.52;72.64;100218.67;106771;1264;59733;-39
2023/12/07 02:38:47;;;;;;;55.00;28.80;;;;;;;-6.55;72.43;100215.69;106784;1262;60094;-39
2023/12/07 02:41:14;;;;;;;51.40;27.70;;;;;;;-6.61;72.43;100211.40;105949;1263;1003811;-39
2023/12/07 02:43:42;;;;;;;47.50;26.70;;;;;;;-6.55;72.12;100214.02;106673;1263;66604;-39
2023/12/07 02:46:10;;;;;;;51.20;27.50;;;;;;;-6.52;72.42;100217.78;105999;1264;1003293;-39
2023/12/07 02:48:37;;;;;;;50.90;27.90;;;;;;;-6.54;72.29;100220.70;106020;1262;1003018;-39
2023/12/07 02:51:05;;;;;;;51.30;27.70;;;;;;;-6.58;72.36;100222.48;106710;1264;59376;-39
2023/12/07 02:53:32;;;;;;;50.00;28.30;;;;;;;-6.58;72.17;100224.76;106765;1263;73033;-39
2023/12/07 02:56:00;;;;;;;48.90;27.60;;;;;;;-6.59;72.69;100225.64;106792;1262;68347;-39
2023/12/07 02:58:27;;;;;;;48.80;26.10;;;;;;;-6.58;72.39;100229.23;106785;1263;71345;-39
2023/12/07 03:00:55;;;;;;;45.80;26.50;;;;;;;-6.62;72.18;100228.10;106794;1263;60036;-39
2023/12/07 03:03:23;;;;;;;49.90;27.80;;;;;;;-6.62;72.24;100229.77;106819;1263;59609;-39
2023/12/07 03:05:50;;;;;;;50.70;26.80;;;;;;;-6.62;72.23;100233.22;106816;1264;73068;-39
2023/12/07 03:08:18;;;;;;;45.90;26.00;;;;;;;-6.62;72.02;100233.21;106776;1263;67579;-39
2023/12/07 03:10:46;;;;;;;47.30;26.40;;;;;;;-6.54;71.69;100241.84;106005;1263;1003098;-39
2023/12/07 03:13:13;;;;;;;45.00;26.70;;;;;;;-6.50;71.67;100242.52;106778;1263;59667;-39
2023/12/07 03:15:41;;;;;;;47.30;26.50;;;;;;;-6.51;71.81;100246.25;106830;1262;59980;-39
2023/12/07 03:18:08;;;;;;;53.30;27.80;;;;;;;-6.50;71.88;100250.80;106782;1268;73072;-39
2023/12/07 03:20:36;;;;;;;48.60;26.50;;;;;;;-6.51;71.87;100252.50;106351;1260;1003267;-39
2023/12/07 03:23:04;;;;;;;47.50;26.70;;;;;;;-6.56;71.85;100247.59;106967;1260;73042;-39
2023/12/07 03:25:32;;;;;;;49.50;26.80;;;;;;;-6.61;71.83;100246.11;106246;1264;1003668;-39
2023/12/07 03:27:59;;;;;;;50.50;28.80;;;;;;;-6.67;71.89;100247.38;107011;1260;60304;-39
2023/12/07 03:30:27;;;;;;;51.30;27.60;;;;;;;-6.74;71.96;100246.47;107010;1264;71992;-39
2023/12/07 03:32:54;;;;;;;49.10;26.50;;;;;;;-6.72;71.92;100241.38;107031;1259;67736;-39
2023/12/07 03:35:22;;;;;;;43.30;25.30;;;;;;;-6.70;72.00;100239.64;107014;1257;72737;-39
2023/12/07 03:37:49;;;;;;;45.00;26.30;;;;;;;-6.73;72.22;100234.20;107029;1261;60399;-39
2023/12/07 03:40:17;;;;;;;51.20;27.00;;;;;;;-6.74;72.45;100235.92;107006;1257;60462;-39
2023/12/07 03:42:44;;;;;;;50.30;28.20;;;;;;;-6.73;72.19;100236.20;106853;1261;73187;-39
2023/12/07 03:45:23;;;;;;;48.80;27.10;;;;;;;-6.72;72.15;100231.43;107041;1262;66276;-39
2023/12/07 03:47:51;;;;;;;50.90;27.20;;;;;;;-6.74;72.12;100232.31;107082;1260;71458;-39
2023/12/07 03:50:18;;;;;;;53.80;27.70;;;;;;;-6.83;72.07;100233.14;107026;1260;60349;-39
2023/12/07 03:52:46;;;;;;;48.50;27.00;;;;;;;-6.88;72.00;100237.46;107004;1258;60326;-39
2023/12/07 03:55:14;;;;;;;47.00;25.70;;;;;;;-6.88;72.24;100240.55;106974;1258;73864;-39
2023/12/07 03:57:41;;;;;;;50.70;27.10;;;;;;;-6.79;71.78;100241.06;107019;1262;67621;-38
2023/12/07 04:00:11;;;;;;;50.90;28.70;;;;;;;-6.71;72.13;100243.05;107012;1260;73200;-39
2023/12/07 04:02:38;;;;;;;49.00;26.40;;;;;;;-6.70;71.82;100242.56;106998;1260;60531;-39
2023/12/07 04:05:06;;;;;;;52.30;28.00;;;;;;;-6.71;72.08;100243.86;107007;1260;60374;-39
2023/12/07 04:07:34;;;;;;;50.30;26.80;;;;;;;-6.69;72.04;100245.31;106972;1260;74045;-39
2023/12/07 04:10:05;;;;;;;48.10;27.20;;;;;;;-6.71;71.82;100243.70;107026;1260;67948;-39
2023/12/07 04:12:33;;;;;;;50.50;26.30;;;;;;;-6.71;71.70;100239.36;107001;1260;72682;-39
2023/12/07 04:15:00;;;;;;;50.80;26.90;;;;;;;-6.71;71.80;100238.63;107009;1260;60550;-39
2023/12/07 04:17:28;;;;;;;44.70;25.30;;;;;;;-6.68;71.74;100241.23;107005;1264;60425;-39
2023/12/07 04:19:56;;;;;;;48.80;26.90;;;;;;;-6.70;71.65;100235.91;106968;1259;73515;-39
2023/12/07 04:22:23;;;;;;;50.90;27.10;;;;;;;-6.70;71.76;100230.64;106987;1260;68109;-39
2023/12/07 04:24:51;;;;;;;49.10;27.30;;;;;;;-6.70;71.46;100225.48;106968;1260;72723;-39
2023/12/07 04:27:19;;;;;;;44.80;25.10;;;;;;;-6.60;71.33;100219.90;106991;1260;61708;-39
2023/12/07 04:29:47;;;;;;;44.90;25.30;;;;;;;-6.51;70.77;100212.54;107027;1259;60449;-37
2023/12/07 04:32:15;;;;;;;47.60;25.20;;;;;;;-6.53;70.64;100216.50;106996;1260;73859;-37
2023/12/07 04:34:43;;;;;;;51.70;27.30;;;;;;;-6.54;70.62;100214.37;107013;1260;67884;-37
2023/12/07 04:37:11;;;;;;;44.20;23.90;;;;;;;-6.53;70.70;100211.33;106945;1263;72623;-37
2023/12/07 04:39:38;;;;;;;46.90;25.90;;;;;;;-6.53;70.54;100213.27;106949;1258;60425;-37
2023/12/07 04:42:05;;;;;;;46.30;26.30;;;;;;;-6.55;70.76;100219.10;106237;1260;1003210;-37
2023/12/07 04:44:33;;;;;;;50.40;27.20;;;;;;;-6.56;70.73;100219.48;106990;1260;72733;-37
2023/12/07 04:47:00;;;;;;;47.00;25.70;;;;;;;-6.60;70.74;100224.92;106991;1260;66296;-38
2023/12/07 04:49:28;;;;;;;49.60;26.90;;;;;;;-6.60;70.56;100231.90;106998;1260;73123;-38
2023/12/07 04:51:55;;;;;;;54.40;26.70;;;;;;;-6.64;70.45;100225.95;106231;1260;1003644;-38
2023/12/07 04:54:23;;;;;;;46.60;25.40;;;;;;;-6.69;70.46;100228.14;106276;1260;1003701;-38
2023/12/07 04:56:51;;;;;;;44.70;24.20;;;;;;;-6.72;70.71;100228.30;107021;1263;72666;-38
2023/12/07 04:59:18;;;;;;;44.00;24.80;;;;;;;-6.68;70.48;100233.44;106983;1260;66849;-38
2023/12/07 05:01:47;;;;;;;43.30;25.00;;;;;;;-6.65;70.11;100238.64;106996;1260;71461;-38
2023/12/07 05:04:14;;;;;;;46.50;20.80;;;;;;;-6.69;70.29;100242.22;106999;1260;60447;-38
2023/12/07 05:06:42;;;;;;;47.00;24.40;;;;;;;-6.68;70.85;100241.60;107000;1263;60358;-38
2023/12/07 05:09:10;;;;;;;43.60;25.50;;;;;;;-6.69;70.76;100242.38;106967;1260;73895;-38
2023/12/07 05:11:39;;;;;;;45.90;25.00;;;;;;;-6.74;70.33;100242.56;106249;1260;1003472;-38
2023/12/07 05:14:07;;;;;;;43.10;24.80;;;;;;;-6.73;70.68;100239.10;106069;1265;1003404;-38
2023/12/07 05:16:34;;;;;;;45.10;25.60;;;;;;;-6.71;70.75;100230.48;106246;1260;1003037;-38
2023/12/07 05:19:02;;;;;;;48.00;25.60;;;;;;;-6.72;70.20;100232.04;106977;1258;59605;-38
2023/12/07 05:21:30;;;;;;;44.80;24.70;;;;;;;-6.80;70.25;100229.16;106248;1260;1003636;-38
2023/12/07 05:23:58;;;;;;;47.10;24.90;;;;;;;-6.81;70.24;100233.46;107003;1260;67605;-38
2023/12/07 05:26:25;;;;;;;45.30;25.00;;;;;;;-6.82;70.41;100242.60;106227;1260;1003756;-38
2023/12/07 05:28:53;;;;;;;42.40;24.30;;;;;;;-6.81;70.17;100247.42;106961;1260;60415;-38
2023/12/07 05:31:21;;;;;;;46.10;25.80;;;;;;;-6.80;70.46;100253.85;107013;1260;60436;-38
2023/12/07 05:33:48;;;;;;;41.70;23.80;;;;;;;-6.73;70.19;100255.66;106993;1263;73821;-38
2023/12/07 05:36:16;;;;;;;42.60;24.50;;;;;;;-6.59;70.14;100259.92;106980;1258;67596;-38
2023/12/07 05:38:43;;;;;;;39.70;23.10;;;;;;;-6.49;69.82;100256.83;107002;1260;72667;-38
2023/12/07 05:41:12;;;;;;;47.10;25.30;;;;;;;-6.46;70.11;100249.34;106968;1260;60416;-38
2023/12/07 05:43:41;;;;;;;44.20;25.70;;;;;;;-6.44;69.88;100247.12;107008;1260;60434;-38
2023/12/07 05:46:09;;;;;;;43.70;25.70;;;;;;;-6.42;69.82;100254.31;106366;1263;1003561;-38
2023/12/07 05:48:37;;;;;;;42.10;24.20;;;;;;;-6.44;69.65;100256.55;106247;1260;1002989;-38
2023/12/07 05:51:06;;;;;;;46.40;24.40;;;;;;;-6.45;69.73;100258.63;107026;1260;72727;-38
2023/12/07 05:53:33;;;;;;;43.80;24.80;;;;;;;-6.45;70.02;100258.10;107051;1260;58400;-38
2023/12/07 05:56:01;;;;;;;40.50;24.10;;;;;;;-6.46;69.95;100257.55;106254;1262;1003121;-38
2023/12/07 05:58:32;;;;;;;43.80;25.40;;;;;;;-6.47;70.07;100256.98;106999;1260;73835;-38
2023/12/07 06:01:00;;;;;;;44.90;24.90;;;;;;;-6.48;70.27;100255.80;106256;1260;1003339;-38
2023/12/07 06:03:28;;;;;;;41.40;24.00;;;;;;;-6.50;70.14;100256.67;106999;1264;72694;-38
2023/12/07 06:05:56;;;;;;;40.40;23.50;;;;;;;-6.49;69.97;100260.54;106963;1260;60368;-38
2023/12/07 06:08:23;;;;;;;39.20;23.50;;;;;;;-6.46;70.26;100262.24;106242;1260;1003678;-38
2023/12/07 06:10:51;;;;;;;40.80;23.50;;;;;;;-6.46;70.43;100261.52;106982;1260;73803;-38
2023/12/07 06:13:18;;;;;;;40.90;24.40;;;;;;;-6.41;70.80;100259.45;107009;1260;68233;-38
2023/12/07 06:15:46;;;;;;;42.30;24.00;;;;;;;-6.39;70.56;100259.95;106975;1261;72718;-38
2023/12/07 06:18:13;;;;;;;43.90;25.80;;;;;;;-6.38;70.77;100268.04;106992;1260;60270;-38
2023/12/07 06:20:42;;;;;;;47.80;25.90;;;;;;;-6.36;70.45;100270.66;106247;1260;1003033;-38
2023/12/07 06:23:12;;;;;;;44.40;24.60;;;;;;;-6.39;70.67;100263.84;106950;1260;73061;-38
2023/12/07 06:25:40;;;;;;;48.60;26.70;;;;;;;-6.42;70.44;100258.13;107002;1260;67601;-38
2023/12/07 06:28:08;;;;;;;49.50;27.10;;;;;;;-6.43;70.52;100257.98;106983;1260;73096;-38
2023/12/07 06:30:35;;;;;;;43.40;24.80;;;;;;;-6.40;70.57;100252.33;107021;1264;60434;-38
2023/12/07 06:33:03;;;;;;;42.80;25.10;;;;;;;-6.32;70.50;100246.20;107033;1260;60403;-38
2023/12/07 06:35:30;;;;;;;44.90;25.30;;;;;;;-6.31;70.72;100243.21;107017;1263;73802;-38
2023/12/07 06:37:58;;;;;;;43.50;25.80;;;;;;;-6.40;70.87;100228.75;107010;1260;68010;-38
2023/12/07 06:40:25;;;;;;;47.50;27.00;;;;;;;-6.33;70.57;100234.61;106263;1260;1003669;-38
2023/12/07 06:42:53;;;;;;;45.30;26.10;;;;;;;-6.34;70.90;100233.63;106991;1264;60408;-38
2023/12/07 06:45:20;;;;;;;41.80;25.00;;;;;;;-6.34;71.09;100241.27;106977;1260;60135;-38
2023/12/07 06:47:48;;;;;;;45.70;26.30;;;;;;;-6.28;71.19;100243.58;106986;1263;73834;-38
2023/12/07 06:50:16;;;;;;;50.60;27.80;;;;;;;-6.25;70.79;100249.67;106965;1266;67607;-38
2023/12/07 06:52:44;;;;;;;49.40;27.60;;;;;;;-6.25;70.95;100253.31;106995;1260;72634;-38
2023/12/07 06:55:14;;;;;;;38.60;21.30;;;;;;;-6.21;70.90;100255.89;106967;1263;61680;-38
2023/12/07 06:57:42;;;;;;;46.30;25.40;;;;;;;-6.08;70.80;100258.88;106980;1260;60488;-38
2023/12/07 07:00:10;;;;;;;42.90;25.40;;;;;;;-5.97;70.74;100254.83;106965;1260;72563;-38
2023/12/07 07:02:39;;;;;;;44.00;25.70;;;;;;;-5.89;70.98;100248.77;107155;1263;67721;-38
2023/12/07 07:05:07;;;;;;;47.00;26.00;;;;;;;-5.83;70.90;100245.49;107035;1263;71707;-38
2023/12/07 07:07:35;;;;;;;47.70;27.30;;;;;;;-5.80;70.45;100235.88;106227;1260;1003112;-38
2023/12/07 07:10:03;;;;;;;50.50;28.10;;;;;;;-5.82;70.49;100236.42;107002;1261;59565;-38
2023/12/07 07:12:31;;;;;;;49.30;28.70;;;;;;;-5.84;70.74;100234.48;107104;1260;73880;-38
2023/12/07 07:14:59;;;;;;;50.00;28.80;;;;;;;-5.81;70.89;100230.80;106974;1264;67914;-38
2023/12/07 07:17:28;;;;;;;51.10;27.00;;;;;;;-5.83;70.64;100231.40;106988;1260;71928;-38
2023/12/07 07:19:56;;;;;;;47.80;27.00;;;;;;;-5.72;70.97;100236.48;106999;1260;62156;-38
2023/12/07 07:22:24;;;;;;;46.90;27.20;;;;;;;-5.57;70.53;100238.91;107012;1260;60301;-38
2023/12/07 07:24:52;;;;;;;46.20;26.50;;;;;;;-5.53;70.77;100239.91;106988;1261;72249;-38
2023/12/07 07:27:19;;;;;;;53.60;28.40;;;;;;;-5.47;70.86;100241.87;106990;1263;68651;-38
2023/12/07 07:29:47;;;;;;;46.50;26.90;;;;;;;-5.46;70.52;100239.92;106988;1264;71678;-38
2023/12/07 07:32:16;;;;;;;47.80;28.20;;;;;;;-5.47;70.71;100238.70;106991;1259;60444;-38
2023/12/07 07:34:43;;;;;;;51.10;28.20;;;;;;;-5.53;70.56;100242.38;106225;1266;1003081;-38
2023/12/07 07:37:11;;;;;;;48.70;27.60;;;;;;;-5.63;70.39;100246.35;106191;1264;1002552;-38
2023/12/07 07:39:39;;;;;;;48.30;27.30;;;;;;;-5.76;70.66;100255.01;106998;1260;67613;-38
2023/12/07 07:42:06;;;;;;;43.90;26.00;;;;;;;-5.78;70.88;100265.20;107007;1263;72632;-38
2023/12/07 07:44:34;;;;;;;45.20;26.60;;;;;;;-5.80;71.35;100273.27;106983;1264;60361;-38
2023/12/07 07:47:01;;;;;;;48.70;27.60;;;;;;;-5.82;71.69;100280.70;106898;1259;62355;-38
2023/12/07 07:49:29;;;;;;;44.00;26.50;;;;;;;-5.80;71.74;100287.32;106847;1260;72851;-38
2023/12/07 07:51:56;;;;;;;45.20;26.60;;;;;;;-5.82;71.78;100289.52;106836;1259;66728;-38
2023/12/07 07:54:25;;;;;;;50.80;28.20;;;;;;;-5.86;71.80;100293.07;106808;1265;72704;-38
2023/12/07 07:56:53;;;;;;;47.30;25.80;;;;;;;-5.83;71.86;100306.55;106822;1260;61795;-38
2023/12/07 07:59:20;;;;;;;45.90;27.20;;;;;;;-5.84;71.66;100300.52;106802;1261;60108;-38
2023/12/07 08:01:49;;;;;;;48.20;27.60;;;;;;;-5.70;71.72;100312.82;106850;1266;72656;-38
2023/12/07 08:04:16;;;;;;;46.60;26.90;;;;;;;-5.68;72.02;100313.49;106189;1266;1003222;-38
2023/12/07 08:06:44;;;;;;;44.50;26.10;;;;;;;-5.73;72.04;100310.52;106111;1265;1003507;-38
2023/12/07 08:09:12;;;;;;;49.00;28.00;;;;;;;-5.77;72.04;100311.77;106857;1260;60559;-38
2023/12/07 08:11:40;;;;;;;46.40;27.60;;;;;;;-5.76;72.24;100310.05;107003;1260;60926;-38
2023/12/07 08:14:08;;;;;;;48.80;27.50;;;;;;;-5.73;72.35;100312.43;106997;1266;73807;-38
2023/12/07 08:16:36;;;;;;;41.80;25.90;;;;;;;-5.60;72.30;100316.04;106970;1265;67033;-38
2023/12/07 08:19:04;;;;;;;49.30;27.20;;;;;;;-5.51;72.33;100315.24;106982;1265;72854;-38
2023/12/07 08:21:31;;;;;;;48.40;26.60;;;;;;;-5.47;71.77;100311.52;106982;1265;60446;-39
2023/12/07 08:23:59;;;;;;;44.60;25.80;;;;;;;-5.48;71.59;100310.45;106981;1266;59662;-38
2023/12/07 08:26:27;;;;;;;50.80;27.20;;;;;;;-5.46;71.78;100310.11;106993;1261;74070;-38
2023/12/07 08:28:56;;;;;;;52.70;29.40;;;;;;;-5.46;71.74;100315.97;107007;1266;67592;-38
2023/12/07 08:31:24;;;;;;;51.90;28.70;;;;;;;-5.44;71.51;100319.52;106953;1261;70586;-38
2023/12/07 08:33:52;;;;;;;54.30;27.90;;;;;;;-5.48;71.23;100321.70;106965;1259;60458;-39
2023/12/07 08:36:20;;;;;;;46.60;26.60;;;;;;;-5.50;71.52;100325.12;106230;1265;1016287;-39
2023/12/07 08:38:48;;;;;;;52.80;28.10;;;;;;;-5.45;71.72;100321.02;106966;1265;72753;-38
2023/12/07 08:41:16;;;;;;;45.60;26.20;;;;;;;-5.31;71.48;100320.20;106970;1266;67569;-38
2023/12/07 08:43:44;;;;;;;45.20;26.90;;;;;;;-5.24;71.48;100311.11;106945;1264;71471;-39
2023/12/07 08:46:11;;;;;;;44.10;26.80;;;;;;;-5.17;71.61;100311.00;106981;1260;60513;-39
2023/12/07 08:48:39;;;;;;;47.30;26.20;;;;;;;-5.07;71.67;100312.48;106939;1266;60433;-38
2023/12/07 08:51:10;;;;;;;50.00;27.50;;;;;;;-5.01;70.92;100305.71;106977;1266;73044;-38
2023/12/07 08:53:38;;;;;;;46.40;27.10;;;;;;;-4.99;70.99;100298.99;106965;1266;67774;-38
2023/12/07 08:56:06;;;;;;;45.90;26.20;;;;;;;-4.96;70.83;100293.40;106998;1260;72710;-39
2023/12/07 08:58:34;;;;;;;42.30;25.10;;;;;;;-4.91;70.97;100287.56;106359;1261;1003850;-39
2023/12/07 09:01:02;;;;;;;43.70;25.00;;;;;;;-4.88;70.76;100289.42;106245;1267;1015528;-38
2023/12/07 09:03:31;;;;;;;49.50;26.60;;;;;;;-4.82;70.90;100288.27;106227;1266;1003373;-39
2023/12/07 09:06:01;;;;;;;45.50;26.80;;;;;;;-4.73;70.97;100290.40;107006;1260;68082;-38
2023/12/07 09:08:29;;;;;;;41.20;23.90;;;;;;;-4.59;70.90;100282.77;106982;1265;72663;-38
2023/12/07 09:10:56;;;;;;;39.90;23.50;;;;;;;-4.42;70.46;100278.23;107002;1260;60290;-39
2023/12/07 09:13:24;;;;;;;44.70;24.30;;;;;;;-4.32;70.44;100276.30;106131;1261;1003659;-39
2023/12/07 09:15:52;;;;;;;41.00;24.60;;;;;;;-4.25;70.14;100271.72;106137;1260;1003261;-38
2023/12/07 09:18:21;;;;;;;41.60;24.60;;;;;;;-4.21;69.60;100271.65;106986;1259;68305;-38
2023/12/07 09:20:49;;;;;;;41.10;24.90;;;;;;;-4.24;69.14;100269.13;106849;1261;72666;-39
2023/12/07 09:23:17;;;;;;;44.50;25.60;;;;;;;-4.36;68.57;100263.69;106879;1261;60285;-39
2023/12/07 09:25:44;;;;;;;42.80;25.40;;;;;;;-4.46;69.04;100260.45;106928;1261;60402;-38
2023/12/07 09:28:12;;;;;;;43.60;26.10;;;;;;;-4.46;69.33;100259.06;106742;1261;73882;-39
2023/12/07 09:30:40;;;;;;;42.50;25.90;;;;;;;-4.55;69.06;100258.70;106963;1261;67566;-39
2023/12/07 09:33:08;;;;;;;43.70;26.70;;;;;;;-4.64;69.37;100255.22;106822;1264;71953;-38
2023/12/07 09:35:35;;;;;;;45.10;26.60;;;;;;;-4.67;69.74;100255.43;106885;1266;61810;-39
2023/12/07 09:38:03;;;;;;;39.60;24.00;;;;;;;-4.60;69.63;100254.27;106861;1260;60513;-39
2023/12/07 09:40:31;;;;;;;39.50;24.70;;;;;;;-4.56;69.32;100249.69;106881;1261;74239;-39
2023/12/07 09:42:59;;;;;;;45.40;24.60;;;;;;;-4.64;69.44;100248.60;107175;1258;66812;-39
2023/12/07 09:45:26;;;;;;;45.40;25.40;;;;;;;-4.76;69.35;100252.34;107210;1257;72667;-39
2023/12/07 09:47:56;;;;;;;46.80;24.80;;;;;;;-4.88;69.64;100251.02;107149;1260;59087;-39
2023/12/07 09:50:25;;;;;;;48.80;27.50;;;;;;;-4.97;69.85;100248.44;107210;1255;60633;-39
2023/12/07 09:52:57;;;;;;;48.00;27.00;;;;;;;-5.04;70.28;100251.63;107210;1261;76137;-39
2023/12/07 09:55:28;;;;;;;46.70;26.30;;;;;;;-5.13;70.34;100253.34;107060;1258;65743;-39
2023/12/07 09:57:58;;;;;;;46.40;27.40;;;;;;;-5.19;70.87;100258.52;107083;1257;72714;-39
2023/12/07 10:00:25;;;;;;;48.00;27.40;;;;;;;-5.16;70.99;100247.38;107210;1261;61008;-38
2023/12/07 10:02:53;;;;;;;47.30;27.40;;;;;;;-5.12;71.15;100245.54;107219;1257;60431;-39
2023/12/07 10:05:22;;;;;;;49.70;28.10;;;;;;;-5.16;71.30;100244.03;106457;1257;1003211;-39
2023/12/07 10:07:50;;;;;;;56.10;29.40;;;;;;;-5.20;71.66;100242.90;107220;1260;70161;-39
2023/12/07 10:10:18;;;;;;;55.90;29.80;;;;;;;-5.18;71.96;100243.84;107203;1260;71756;-38
2023/12/07 10:12:48;;;;;;;54.30;30.80;;;;;;;-5.20;71.62;100240.30;107173;1255;62303;-38
2023/12/07 10:15:16;;;;;;;52.80;28.80;;;;;;;-5.28;71.62;100243.69;107222;1254;60113;-38
2023/12/07 10:17:47;;;;;;;52.30;30.50;;;;;;;-5.27;71.93;100240.92;107285;1254;73859;-38
2023/12/07 10:20:23;;;;;;;54.10;30.10;;;;;;;-5.20;71.78;100240.35;107206;1257;69876;-38
2023/12/07 10:23:04;;;;;;;52.10;29.90;;;;;;;-5.18;72.13;100239.77;107169;1257;72729;-38
2023/12/07 10:25:32;;;;;;;54.80;31.00;;;;;;;-5.10;72.46;100240.18;107139;1260;60385;-38
2023/12/07 10:28:00;;;;;;;41.40;23.80;;;;;;;-5.05;72.18;100234.04;107185;1257;60524;-38
2023/12/07 10:30:28;;;;;;;55.10;31.10;;;;;;;-5.08;72.00;100234.15;107239;1255;73402;-38
2023/12/07 10:32:56;;;;;;;54.30;31.60;;;;;;;-5.10;72.35;100229.81;107192;1260;69097;-38
2023/12/07 10:35:24;;;;;;;52.90;29.80;;;;;;;-5.06;72.48;100225.45;107133;1257;71534;-38
2023/12/07 10:37:52;;;;;;;52.60;29.90;;;;;;;-4.99;71.77;100224.07;107158;1258;60542;-38
2023/12/07 10:40:20;;;;;;;50.50;29.70;;;;;;;-4.96;71.67;100223.80;107198;1256;60429;-38
2023/12/07 10:42:48;;;;;;;53.00;28.80;;;;;;;-5.00;71.90;100231.81;107215;1254;73978;-38
2023/12/07 10:45:16;;;;;;;56.30;30.90;;;;;;;-4.99;72.25;100229.45;107178;1256;67576;-38
2023/12/07 10:47:44;;;;;;;52.70;30.20;;;;;;;-4.92;72.52;100227.83;107156;1257;75385;-38
2023/12/07 10:50:12;;;;;;;57.50;33.00;;;;;;;-4.85;72.25;100227.50;107143;1257;59483;-39
2023/12/07 10:52:44;;;;;;;52.90;29.80;;;;;;;-4.83;71.92;100226.15;107074;1257;62158;-39
2023/12/07 10:55:20;;;;;;;55.70;30.40;;;;;;;-4.80;72.06;100230.27;107158;1260;76004;-38
2023/12/07 10:57:48;;;;;;;55.60;28.90;;;;;;;-4.73;71.60;100221.84;107194;1258;66594;-39
2023/12/07 11:00:15;;;;;;;51.30;29.40;;;;;;;-4.70;71.35;100224.20;107083;1257;70578;-39
2023/12/07 11:02:43;;;;;;;52.90;30.20;;;;;;;-4.71;71.75;100221.96;107024;1258;60411;-38
2023/12/07 11:05:11;;;;;;;55.70;30.20;;;;;;;-4.70;71.81;100214.69;107088;1257;62202;-39
2023/12/07 11:07:49;;;;;;;55.40;29.90;;;;;;;-4.70;71.89;100211.89;107101;1258;73975;-39
2023/12/07 11:10:42;;;;;;;52.90;30.40;;;;;;;-4.71;71.89;100209.05;107180;1257;70328;-39
2023/12/07 11:13:17;;;;;;;53.50;29.30;;;;;;;-4.71;72.35;100215.52;107223;1260;75468;-38
2023/12/07 11:15:44;;;;;;;50.70;29.10;;;;;;;-4.64;72.10;100218.12;107144;1258;61706;-38
2023/12/07 11:18:13;;;;;;;46.60;27.50;;;;;;;-4.50;71.96;100218.09;107127;1257;60274;-38
2023/12/07 11:20:44;;;;;;;55.20;29.40;;;;;;;-4.48;72.08;100217.98;107137;1255;74232;-38